Time;durP1;ratioP1;P1;durP2;ratioP2;P2;SDS_P1;SDS_P2;PMS_P1;PMS_P2;Temp;Humidity;BMP_temperature;BMP_pressure;BME280_temperature;BME280_humidity;BME280_pressure;Samples;Min_cycle;Max_cycle;Signal;HPM_P1;HPM_P2
2022/08/02 00:00:13;;;;;;;7.15;2.35;;;15.60;99.90;;;;;;5029686;28;20951;-76
2022/08/02 00:02:39;;;;;;;9.43;2.90;;;15.50;99.90;;;;;;5030527;28;20036;-75
2022/08/02 00:05:08;;;;;;;14.55;2.55;;;15.50;99.90;;;;;;5045997;28;20052;-76
2022/08/02 00:07:34;;;;;;;7.22;2.00;;;15.50;99.90;;;;;;5043253;28;20504;-76
2022/08/02 00:10:00;;;;;;;6.65;2.08;;;15.50;99.90;;;;;;5028672;28;20041;-76
2022/08/02 00:12:26;;;;;;;5.55;1.95;;;15.50;99.90;;;;;;5048214;28;20067;-76
2022/08/02 00:14:54;;;;;;;9.48;2.35;;;15.40;99.90;;;;;;5048556;28;20044;-76
2022/08/02 00:17:20;;;;;;;10.65;2.03;;;15.30;99.90;;;;;;5032340;28;20493;-76
2022/08/02 00:19:46;;;;;;;10.40;2.30;;;15.40;99.90;;;;;;5045261;28;20025;-76
2022/08/02 00:22:12;;;;;;;8.00;2.00;;;15.30;99.90;;;;;;5014858;28;20650;-76
2022/08/02 00:24:37;;;;;;;8.25;2.03;;;15.30;99.90;;;;;;5025586;28;20025;-76
2022/08/02 00:27:03;;;;;;;10.88;2.67;;;15.30;99.90;;;;;;5049913;28;20033;-76
2022/08/02 00:29:29;;;;;;;9.48;2.10;;;15.30;99.90;;;;;;5012017;28;20435;-76
2022/08/02 00:31:56;;;;;;;7.38;2.83;;;15.20;99.90;;;;;;5048411;28;20040;-77
2022/08/02 00:34:25;;;;;;;8.27;2.20;;;15.20;99.90;;;;;;5012098;28;20033;-77
2022/08/02 00:36:51;;;;;;;6.70;1.70;;;15.20;99.90;;;;;;5027485;28;20393;-77
2022/08/02 00:39:17;;;;;;;8.90;2.65;;;15.20;99.90;;;;;;5049730;28;20029;-77
2022/08/02 00:41:48;;;;;;;8.55;2.00;;;15.10;99.90;;;;;;5028080;28;20032;-77
2022/08/02 00:44:15;;;;;;;9.15;2.30;;;15.20;99.90;;;;;;5041038;28;20040;-77
2022/08/02 00:46:46;;;;;;;10.10;2.80;;;15.10;99.90;;;;;;5016287;28;20040;-77
2022/08/02 00:49:12;;;;;;;11.73;2.95;;;15.10;99.90;;;;;;5011952;28;20020;-76
2022/08/02 00:51:39;;;;;;;7.88;2.30;;;15.10;99.90;;;;;;5049282;28;20040;-76
2022/08/02 00:54:11;;;;;;;8.20;2.25;;;15.00;99.90;;;;;;5043737;28;20364;-76
2022/08/02 00:56:37;;;;;;;6.25;2.30;;;15.00;99.90;;;;;;5046838;28;20116;-76
2022/08/02 00:59:03;;;;;;;10.60;2.70;;;15.00;99.90;;;;;;5042863;28;20564;-77
2022/08/02 01:01:38;;;;;;;7.68;2.20;;;15.00;99.90;;;;;;5028957;28;20032;-76
2022/08/02 01:04:08;;;;;;;7.35;2.03;;;15.00;99.90;;;;;;5030775;28;20048;-75
2022/08/02 01:06:38;;;;;;;12.10;2.57;;;15.00;99.90;;;;;;5036887;28;20017;-75
2022/08/02 01:09:07;;;;;;;5.35;2.42;;;15.00;99.90;;;;;;5032256;28;20271;-76
2022/08/02 01:11:34;;;;;;;6.07;2.45;;;15.00;99.90;;;;;;5014263;28;20029;-76
2022/08/02 01:14:05;;;;;;;11.82;2.38;;;15.00;99.90;;;;;;5027611;28;20393;-76
2022/08/02 01:16:35;;;;;;;;;;;14.90;99.90;;;;;;5032781;28;20029;-75
2022/08/02 01:19:30;;;;;;;7.40;2.13;;;14.90;99.90;;;;;;5027720;28;20122;-76
2022/08/02 01:21:58;;;;;;;5.15;1.88;;;14.90;99.90;;;;;;5028958;28;20036;-77
2022/08/02 01:24:53;;;;;;;10.38;2.42;;;14.90;99.90;;;;;;5045702;28;20029;-76
2022/08/02 01:27:49;;;;;;;7.90;2.25;;;14.90;99.90;;;;;;5006832;28;20057;-77
2022/08/02 01:30:16;;;;;;;12.65;2.45;;;14.90;99.90;;;;;;4992930;28;20634;-76
2022/08/02 01:32:47;;;;;;;7.63;2.00;;;14.80;99.90;;;;;;5026912;28;20028;-75
2022/08/02 01:35:21;;;;;;;5.75;1.48;;;14.80;99.90;;;;;;5026574;28;20037;-76
2022/08/02 01:37:51;;;;;;;9.82;2.22;;;14.80;99.90;;;;;;5034217;28;20021;-76
2022/08/02 01:40:24;;;;;;;7.72;1.77;;;14.80;99.90;;;;;;5047429;28;20145;-76
2022/08/02 01:42:54;;;;;;;6.28;1.70;;;14.80;99.90;;;;;;5011720;28;20525;-76
2022/08/02 01:45:23;;;;;;;6.55;2.22;;;14.70;99.90;;;;;;5039351;28;20457;-76
2022/08/02 01:47:50;;;;;;;7.35;2.22;;;14.70;99.90;;;;;;5025931;28;20033;-76
2022/08/02 01:50:20;;;;;;;6.75;2.17;;;14.70;99.90;;;;;;5047996;28;20061;-76
2022/08/02 01:52:52;;;;;;;7.55;2.08;;;14.70;99.90;;;;;;5045229;28;20440;-76
2022/08/02 01:55:22;;;;;;;7.85;2.15;;;14.70;99.90;;;;;;5014280;28;20044;-76
2022/08/02 01:57:52;;;;;;;7.65;2.22;;;14.70;99.90;;;;;;5043222;28;20467;-76
2022/08/02 02:00:21;;;;;;;10.40;2.80;;;14.60;99.90;;;;;;5010927;28;20030;-76
2022/08/02 02:02:51;;;;;;;7.38;2.30;;;14.60;99.90;;;;;;5010085;28;20515;-77
2022/08/02 02:05:19;;;;;;;9.07;2.60;;;14.60;99.90;;;;;;5026102;28;20055;-77
2022/08/02 02:07:48;;;;;;;8.95;2.95;;;14.60;99.90;;;;;;5047147;28;20070;-76
2022/08/02 02:10:17;;;;;;;6.40;2.08;;;14.60;99.90;;;;;;5024800;28;20033;-76
2022/08/02 02:12:48;;;;;;;9.20;3.28;;;14.50;99.90;;;;;;5029151;28;20029;-76
2022/08/02 02:15:14;;;;;;;8.20;2.20;;;14.50;99.90;;;;;;5037914;28;20040;-76
2022/08/02 02:17:48;;;;;;;8.98;2.28;;;14.50;99.90;;;;;;5037814;28;20183;-76
2022/08/02 02:20:17;;;;;;;6.25;2.25;;;14.50;99.90;;;;;;5046153;28;20120;-76
2022/08/02 02:22:43;;;;;;;6.18;2.22;;;14.40;99.90;;;;;;5028322;28;20029;-77
2022/08/02 02:25:11;;;;;;;7.38;2.60;;;14.40;99.90;;;;;;5050035;28;20035;-77
2022/08/02 02:27:41;;;;;;;8.50;2.05;;;14.40;99.90;;;;;;5036538;28;20060;-76
2022/08/02 02:30:08;;;;;;;7.20;2.28;;;14.40;99.90;;;;;;5010914;28;20029;-76
2022/08/02 02:32:35;;;;;;;8.45;2.38;;;14.40;99.90;;;;;;5046917;28;20037;-76
2022/08/02 02:35:03;;;;;;;5.32;1.90;;;14.40;99.90;;;;;;5049388;28;20120;-77
2022/08/02 02:37:31;;;;;;;8.02;2.70;;;14.30;99.90;;;;;;5033139;28;20029;-77
2022/08/02 02:39:57;;;;;;;7.70;2.67;;;14.30;99.90;;;;;;5031544;28;20029;-76
2022/08/02 02:42:28;;;;;;;9.25;2.47;;;14.30;99.90;;;;;;5048297;28;20488;-76
2022/08/02 02:44:56;;;;;;;8.88;2.85;;;14.30;99.90;;;;;;5030687;28;20029;-76
2022/08/02 02:47:25;;;;;;;7.00;2.03;;;14.30;99.90;;;;;;5049813;28;20090;-76
2022/08/02 02:49:51;;;;;;;11.27;2.72;;;14.20;99.90;;;;;;5042667;28;20400;-76
2022/08/02 02:52:19;;;;;;;11.73;2.38;;;14.20;99.90;;;;;;5029832;28;20059;-76
2022/08/02 02:54:48;;;;;;;6.47;2.30;;;14.20;99.90;;;;;;5048727;28;20032;-76
2022/08/02 02:57:14;;;;;;;8.23;2.33;;;14.10;99.90;;;;;;5032654;28;20028;-76
2022/08/02 02:59:41;;;;;;;7.40;2.33;;;14.10;99.90;;;;;;5047490;28;20035;-76
2022/08/02 03:02:07;;;;;;;9.65;2.20;;;14.10;99.90;;;;;;5031884;28;20164;-77
2022/08/02 03:04:34;;;;;;;6.10;2.33;;;14.10;99.90;;;;;;5043885;28;20078;-75
2022/08/02 03:07:00;;;;;;;11.68;2.50;;;14.10;99.90;;;;;;5051733;28;20056;-76
2022/08/02 03:09:26;;;;;;;7.50;2.33;;;14.10;99.90;;;;;;5029786;28;20493;-75
2022/08/02 03:11:53;;;;;;;9.63;2.50;;;14.10;99.90;;;;;;5049891;28;20107;-76
2022/08/02 03:14:19;;;;;;;9.60;2.15;;;14.10;99.90;;;;;;5026789;28;20021;-75
2022/08/02 03:16:47;;;;;;;10.38;2.20;;;14.10;99.90;;;;;;5023391;28;20499;-76
2022/08/02 03:19:14;;;;;;;9.85;2.50;;;14.10;99.90;;;;;;5023269;28;20021;-76
2022/08/02 03:21:41;;;;;;;7.05;2.35;;;14.10;99.90;;;;;;5013990;28;20035;-75
2022/08/02 03:24:07;;;;;;;7.20;2.45;;;14.10;99.90;;;;;;5029982;28;20036;-76
2022/08/02 03:26:36;;;;;;;8.93;2.80;;;14.10;99.90;;;;;;5030416;28;20139;-76
2022/08/02 03:29:02;;;;;;;8.15;3.03;;;14.00;99.90;;;;;;5030587;28;20032;-77
2022/08/02 03:31:28;;;;;;;9.00;2.35;;;14.10;99.90;;;;;;5031548;28;20149;-77
2022/08/02 03:33:58;;;;;;;9.93;2.80;;;14.00;99.90;;;;;;5049290;28;20286;-76
2022/08/02 03:36:27;;;;;;;5.85;2.63;;;14.00;99.90;;;;;;5044976;28;20025;-76
2022/08/02 03:38:54;;;;;;;10.70;2.72;;;14.00;99.90;;;;;;5043558;28;20047;-77
2022/08/02 03:41:22;;;;;;;9.88;2.70;;;14.00;99.90;;;;;;5049306;28;20512;-76
2022/08/02 03:43:49;;;;;;;6.28;2.70;;;14.00;99.90;;;;;;5031580;28;20035;-76
2022/08/02 03:46:18;;;;;;;6.13;2.50;;;14.00;99.90;;;;;;5047127;28;20111;-77
2022/08/02 03:48:45;;;;;;;6.72;2.50;;;14.00;99.90;;;;;;5047774;28;20075;-76
2022/08/02 03:51:11;;;;;;;8.35;2.55;;;14.00;99.90;;;;;;5029741;28;20408;-77
2022/08/02 03:53:38;;;;;;;4.80;2.45;;;14.00;99.90;;;;;;5029845;28;20082;-77
2022/08/02 03:56:05;;;;;;;8.00;2.63;;;14.10;99.90;;;;;;5029252;28;20481;-77
2022/08/02 03:58:31;;;;;;;8.07;2.50;;;14.00;99.90;;;;;;5048922;28;20033;-77
2022/08/02 04:00:58;;;;;;;6.68;2.63;;;14.10;99.90;;;;;;5032231;28;20127;-77
2022/08/02 04:03:24;;;;;;;5.80;2.63;;;14.10;99.90;;;;;;5047173;28;20566;-77
2022/08/02 04:05:50;;;;;;;8.32;2.60;;;14.10;99.90;;;;;;5028408;28;20104;-76
2022/08/02 04:08:16;;;;;;;9.93;2.92;;;14.10;99.90;;;;;;5029998;28;20033;-76
2022/08/02 04:13:31;;;;;;;7.28;2.65;;;14.10;99.90;;;;;;5047812;28;20032;-77
2022/08/02 04:16:07;;;;;;;10.18;3.42;;;14.10;99.90;;;;;;5028364;28;20113;-76
2022/08/02 04:18:38;;;;;;;10.90;3.30;;;14.10;99.90;;;;;;5049457;28;20021;-76
2022/08/02 04:21:05;;;;;;;8.88;2.80;;;14.10;99.90;;;;;;5014981;28;20032;-77
2022/08/02 04:23:33;;;;;;;11.63;3.80;;;14.10;99.90;;;;;;5029703;28;20017;-76
2022/08/02 04:26:00;;;;;;;10.98;3.70;;;14.00;99.90;;;;;;5040745;28;20031;-77
2022/08/02 04:28:27;;;;;;;11.02;3.72;;;14.00;99.90;;;;;;5015165;28;20025;-77
2022/08/02 04:30:55;;;;;;;13.35;2.90;;;14.00;99.90;;;;;;5045431;28;20108;-77
2022/08/02 04:33:23;;;;;;;6.65;3.47;;;14.00;99.90;;;;;;5031473;28;20037;-75
2022/08/02 04:35:48;;;;;;;9.55;3.10;;;14.00;99.90;;;;;;5026057;28;20029;-76
2022/08/02 04:38:15;;;;;;;9.98;3.38;;;14.00;99.90;;;;;;5030579;28;20527;-76
2022/08/02 04:40:54;;;;;;;9.27;3.90;;;14.00;99.90;;;;;;5043859;28;20347;-76
2022/08/02 04:43:20;;;;;;;10.50;3.53;;;14.00;99.90;;;;;;5046351;28;20029;-76
2022/08/02 04:45:51;;;;;;;8.10;3.20;;;14.00;99.90;;;;;;5023568;28;20035;-75
2022/08/02 04:48:18;;;;;;;9.07;3.60;;;14.00;99.90;;;;;;5029483;28;20033;-75
2022/08/02 04:50:43;;;;;;;10.80;3.70;;;13.90;99.90;;;;;;5029241;28;20542;-77
2022/08/02 04:53:09;;;;;;;5.47;2.47;;;13.90;99.90;;;;;;5043723;28;20024;-76
2022/08/02 04:55:35;;;;;;;9.20;3.20;;;14.20;99.90;;;;;;5024033;28;20446;-76
2022/08/02 04:58:00;;;;;;;12.50;3.40;;;14.60;99.90;;;;;;5045789;28;20067;-77
2022/08/02 05:00:28;;;;;;;14.38;3.60;;;14.30;99.90;;;;;;5027955;28;20021;-76
2022/08/02 05:02:55;;;;;;;11.95;4.05;;;14.20;99.90;;;;;;5027287;28;20033;-77
2022/08/02 05:05:21;;;;;;;12.80;3.70;;;14.10;99.90;;;;;;5044469;28;20033;-75
2022/08/02 05:07:47;;;;;;;10.55;4.28;;;14.00;99.90;;;;;;5025827;28;20493;-76
2022/08/02 05:10:13;;;;;;;11.27;4.03;;;14.00;99.90;;;;;;5025457;28;20078;-76
2022/08/02 05:12:39;;;;;;;10.63;3.97;;;14.00;99.90;;;;;;5043074;28;20111;-76
2022/08/02 05:15:05;;;;;;;13.68;5.25;;;14.10;99.90;;;;;;5044857;28;20497;-76
2022/08/02 05:17:31;;;;;;;14.40;4.00;;;14.10;99.90;;;;;;5047189;28;20112;-75
2022/08/02 05:19:56;;;;;;;9.93;3.90;;;14.10;99.90;;;;;;5028757;28;20164;-76
2022/08/02 05:22:22;;;;;;;8.95;4.05;;;14.20;99.90;;;;;;5048329;28;20111;-76
2022/08/02 05:24:48;;;;;;;8.02;3.78;;;14.20;99.90;;;;;;5024522;28;20036;-76
2022/08/02 05:27:14;;;;;;;10.77;3.72;;;14.30;99.90;;;;;;5011151;28;20041;-76
2022/08/02 05:29:39;;;;;;;11.10;4.35;;;14.30;99.90;;;;;;5009600;28;20039;-77
2022/08/02 05:32:05;;;;;;;12.55;4.18;;;14.40;99.90;;;;;;5031312;28;20122;-75
2022/08/02 05:34:31;;;;;;;9.43;4.22;;;14.50;99.90;;;;;;5044218;28;20040;-76
2022/08/02 05:36:56;;;;;;;10.55;3.70;;;14.50;99.90;;;;;;5031899;28;20021;-77
2022/08/02 05:39:22;;;;;;;13.52;5.25;;;14.50;99.90;;;;;;5048803;28;20053;-78
2022/08/02 05:41:50;;;;;;;9.00;3.97;;;14.60;99.90;;;;;;5031638;28;20095;-77
2022/08/02 05:44:16;;;;;;;12.95;4.57;;;14.60;99.90;;;;;;5046746;28;20433;-77
2022/08/02 05:46:42;;;;;;;13.60;4.75;;;14.60;99.90;;;;;;5046307;28;20057;-77
2022/08/02 05:49:08;;;;;;;8.77;4.38;;;14.50;99.90;;;;;;5031038;28;20021;-77
2022/08/02 05:51:37;;;;;;;9.23;4.35;;;14.50;99.90;;;;;;5027770;28;20033;-77
2022/08/02 05:54:30;;;;;;;11.73;3.70;;;14.40;99.90;;;;;;5048807;28;20025;-77
2022/08/02 05:57:04;;;;;;;8.50;3.80;;;14.60;99.90;;;;;;5046092;28;20566;-76
2022/08/02 05:59:51;;;;;;;7.47;3.05;;;14.60;99.90;;;;;;5034370;28;20028;-76
2022/08/02 06:02:47;;;;;;;13.27;4.13;;;14.70;99.90;;;;;;5049601;28;20077;-75
2022/08/02 06:05:15;;;;;;;6.88;2.70;;;14.70;99.90;;;;;;5024827;28;20040;-76
2022/08/02 06:07:43;;;;;;;11.15;3.83;;;14.80;99.90;;;;;;5014441;28;20029;-76
2022/08/02 06:10:13;;;;;;;9.30;2.95;;;14.80;99.90;;;;;;5031612;28;20618;-76
2022/08/02 06:12:55;;;;;;;18.33;4.78;;;14.80;99.90;;;;;;5046417;28;20029;-76
2022/08/02 06:15:21;;;;;;;9.25;2.78;;;14.90;99.90;;;;;;5045917;28;20041;-77
2022/08/02 06:17:47;;;;;;;13.38;3.78;;;14.90;99.90;;;;;;5030565;28;20052;-76
2022/08/02 06:20:14;;;;;;;10.82;2.83;;;15.00;99.90;;;;;;5051482;28;20056;-76
2022/08/02 06:22:42;;;;;;;23.20;4.38;;;15.00;99.90;;;;;;5027815;28;20037;-77
2022/08/02 06:25:09;;;;;;;11.25;3.72;;;15.00;99.90;;;;;;5046258;28;20063;-72
2022/08/02 06:27:36;;;;;;;13.20;3.42;;;15.10;99.90;;;;;;5048369;28;20573;-73
2022/08/02 06:30:03;;;;;;;16.05;3.25;;;15.20;99.90;;;;;;5046627;28;20076;-73
2022/08/02 06:32:32;;;;;;;15.10;3.47;;;15.20;99.90;;;;;;5049608;28;20055;-72
2022/08/02 06:34:58;;;;;;;7.88;3.05;;;15.20;99.90;;;;;;5044338;28;20068;-72
2022/08/02 06:37:24;;;;;;;12.15;3.42;;;15.30;99.90;;;;;;5048619;28;20404;-73
2022/08/02 06:40:06;;;;;;;12.35;3.20;;;15.30;99.90;;;;;;5019199;28;20047;-72
2022/08/02 06:42:48;;;;;;;9.43;2.63;;;15.40;99.90;;;;;;5028269;28;20025;-75
2022/08/02 06:45:14;;;;;;;10.38;2.60;;;15.50;99.90;;;;;;5016078;28;20031;-74
2022/08/02 06:47:40;;;;;;;9.95;2.80;;;15.50;99.90;;;;;;5047705;28;20108;-75
2022/08/02 06:50:06;;;;;;;9.20;2.80;;;15.60;99.90;;;;;;5014470;28;20155;-76
2022/08/02 06:52:33;;;;;;;11.65;2.72;;;15.70;99.90;;;;;;5046432;28;20033;-74
2022/08/02 06:55:02;;;;;;;9.52;2.33;;;15.70;99.90;;;;;;5048436;28;20370;-73
2022/08/02 06:57:31;;;;;;;8.18;2.22;;;15.80;99.90;;;;;;5044060;28;20033;-73
2022/08/02 07:00:00;;;;;;;7.97;2.97;;;15.80;99.90;;;;;;5048212;28;20032;-73
2022/08/02 07:02:26;;;;;;;11.65;2.75;;;15.90;99.90;;;;;;5043770;28;20044;-77
2022/08/02 07:04:53;;;;;;;5.40;2.40;;;15.90;99.90;;;;;;5029444;28;20052;-77
2022/08/02 07:07:18;;;;;;;8.38;2.78;;;16.00;99.90;;;;;;5011045;28;20030;-76
2022/08/02 07:09:44;;;;;;;11.27;2.30;;;16.00;99.90;;;;;;5049186;28;20031;-77
2022/08/02 07:12:10;;;;;;;9.43;2.20;;;16.10;99.90;;;;;;5032184;28;20095;-76
2022/08/02 07:14:36;;;;;;;10.38;2.53;;;16.10;99.90;;;;;;5051411;28;20033;-77
2022/08/02 07:17:05;;;;;;;9.90;2.10;;;16.20;99.90;;;;;;5054651;28;20217;-76
2022/08/02 07:19:46;;;;;;;16.60;2.67;;;16.20;99.90;;;;;;5033520;28;20033;-77
2022/08/02 07:22:12;;;;;;;;;;;16.20;99.90;;;;;;5050151;28;20033;-76
2022/08/02 07:24:39;;;;;;;11.90;3.05;;;16.20;99.90;;;;;;5046790;28;19915;-77
2022/08/02 07:27:05;;;;;;;7.75;2.58;;;16.20;99.90;;;;;;5025504;28;20021;-76
2022/08/02 07:29:31;;;;;;;9.35;2.35;;;16.30;99.90;;;;;;5026687;28;20065;-75
2022/08/02 07:31:57;;;;;;;9.63;2.70;;;16.30;99.90;;;;;;5026098;28;20052;-76
2022/08/02 07:34:23;;;;;;;8.70;2.50;;;16.30;99.90;;;;;;5026126;28;20040;-77
2022/08/02 07:36:48;;;;;;;7.32;2.22;;;16.30;99.90;;;;;;5027783;28;20024;-75
2022/08/02 07:39:14;;;;;;;6.10;2.28;;;16.30;99.90;;;;;;5037230;28;20025;-76
2022/08/02 07:41:40;;;;;;;7.88;2.20;;;16.40;99.90;;;;;;5009207;28;20025;-76
2022/08/02 07:44:05;;;;;;;15.15;2.83;;;16.50;99.90;;;;;;5027483;28;20481;-76
2022/08/02 07:46:32;;;;;;;11.75;2.70;;;16.60;99.90;;;;;;5042936;28;20053;-76
2022/08/02 07:48:58;;;;;;;10.82;1.95;;;16.60;99.90;;;;;;5004688;28;20314;-77
2022/08/02 07:51:23;;;;;;;15.80;2.95;;;16.60;99.90;;;;;;5027911;28;20155;-76
2022/08/02 07:53:49;;;;;;;13.82;2.67;;;16.70;99.90;;;;;;5027794;28;20032;-77
2022/08/02 07:56:15;;;;;;;9.43;2.78;;;16.70;99.90;;;;;;5033347;28;20056;-77
2022/08/02 07:58:41;;;;;;;10.10;1.92;;;16.80;99.90;;;;;;5014486;28;20036;-77
2022/08/02 08:01:07;;;;;;;8.93;1.90;;;16.80;99.90;;;;;;5044986;28;20056;-77
2022/08/02 08:03:33;;;;;;;8.35;2.50;;;16.80;99.90;;;;;;5010685;28;20056;-77
2022/08/02 08:06:00;;;;;;;10.82;2.47;;;16.90;99.90;;;;;;5029705;28;20047;-78
2022/08/02 08:08:26;;;;;;;7.15;2.03;;;17.00;99.90;;;;;;5036181;28;20051;-76
2022/08/02 08:10:52;;;;;;;5.82;2.03;;;17.00;99.90;;;;;;5027842;28;20081;-76
2022/08/02 08:13:18;;;;;;;9.48;2.20;;;17.10;99.90;;;;;;5045182;28;20029;-76
2022/08/02 08:15:44;;;;;;;8.25;2.55;;;17.10;99.90;;;;;;5026775;28;20037;-77
2022/08/02 08:18:10;;;;;;;8.10;2.13;;;17.10;99.90;;;;;;5046958;28;20037;-77
2022/08/02 08:20:37;;;;;;;8.65;2.00;;;17.20;99.90;;;;;;5048587;28;20033;-77
2022/08/02 08:23:03;;;;;;;14.07;2.10;;;17.30;99.90;;;;;;5033228;28;20092;-77
2022/08/02 08:25:29;;;;;;;8.77;1.98;;;17.30;99.90;;;;;;5046991;28;20164;-77
2022/08/02 08:27:56;;;;;;;10.80;2.30;;;17.40;99.90;;;;;;5030338;28;20041;-77
2022/08/02 08:30:22;;;;;;;10.70;2.47;;;17.40;99.90;;;;;;5050520;28;20053;-77
2022/08/02 08:32:48;;;;;;;9.05;2.20;;;17.50;99.90;;;;;;5035294;28;20504;-77
2022/08/02 08:35:14;;;;;;;12.90;2.75;;;17.50;99.90;;;;;;5043303;28;20569;-78
2022/08/02 08:37:40;;;;;;;8.63;2.42;;;17.60;99.90;;;;;;5029062;28;20029;-76
2022/08/02 08:40:08;;;;;;;13.35;2.72;;;17.60;99.90;;;;;;5046707;28;20033;-77
2022/08/02 08:42:37;;;;;;;10.40;2.75;;;17.70;99.90;;;;;;5030598;28;20063;-76
2022/08/02 08:45:04;;;;;;;11.07;3.17;;;17.80;99.90;;;;;;5028610;28;20489;-77
2022/08/02 08:47:38;;;;;;;8.70;2.58;;;17.80;99.90;;;;;;5044789;28;20021;-76
2022/08/02 08:50:10;;;;;;;11.52;2.90;;;17.80;99.90;;;;;;5046259;28;20032;-77
2022/08/02 08:52:56;;;;;;;8.82;2.40;;;17.80;99.90;;;;;;5042902;28;21483;-77
2022/08/02 08:55:24;;;;;;;6.10;2.13;;;17.80;99.90;;;;;;5043437;28;20032;-76
2022/08/02 08:57:52;;;;;;;5.55;2.10;;;17.90;99.90;;;;;;5032306;28;20052;-77
2022/08/02 09:00:17;;;;;;;11.82;2.05;;;18.00;99.90;;;;;;5029242;28;20033;-77
2022/08/02 09:02:43;;;;;;;8.85;2.25;;;18.00;99.90;;;;;;5043888;28;20025;-76
2022/08/02 09:05:11;;;;;;;6.20;2.00;;;18.20;99.90;;;;;;5047071;28;20113;-76
2022/08/02 09:07:37;;;;;;;5.15;1.90;;;18.20;99.90;;;;;;5043089;28;20036;-77
2022/08/02 09:10:40;;;;;;;7.20;2.22;;;18.30;99.90;;;;;;5049672;28;20074;-76
2022/08/02 09:13:17;;;;;;;6.22;1.95;;;18.40;99.90;;;;;;5044809;28;20112;-77
2022/08/02 09:15:51;;;;;;;11.52;2.05;;;18.40;99.90;;;;;;5042586;28;20087;-77
2022/08/02 09:18:17;;;;;;;6.25;1.83;;;18.50;99.90;;;;;;5046955;28;20033;-79
2022/08/02 09:21:03;;;;;;;4.32;1.55;;;18.60;99.90;;;;;;5028085;28;20504;-76
2022/08/02 09:23:41;;;;;;;5.18;2.17;;;18.70;99.90;;;;;;5027579;28;20125;-76
2022/08/02 09:26:10;;;;;;;11.35;2.28;;;18.70;99.90;;;;;;5043475;28;20045;-76
2022/08/02 09:28:38;;;;;;;6.50;1.80;;;18.80;99.90;;;;;;5052924;28;20025;-77
2022/08/02 09:31:04;;;;;;;9.70;2.15;;;18.80;99.90;;;;;;5016162;28;20029;-77
2022/08/02 09:33:31;;;;;;;8.20;1.95;;;19.00;99.90;;;;;;5039023;28;20039;-77
2022/08/02 09:36:02;;;;;;;6.68;1.83;;;19.10;99.90;;;;;;5046818;28;20052;-78
2022/08/02 09:38:29;;;;;;;5.18;1.67;;;19.20;99.90;;;;;;5033010;28;20031;-77
2022/08/02 09:40:55;;;;;;;5.75;1.75;;;19.20;99.50;;;;;;5062229;28;20053;-77
2022/08/02 09:43:33;;;;;;;11.65;2.13;;;19.30;98.70;;;;;;5046729;28;20025;-77
2022/08/02 09:45:58;;;;;;;8.63;2.00;;;19.30;99.40;;;;;;5049710;28;20043;-78
2022/08/02 09:48:24;;;;;;;6.63;2.13;;;19.30;99.90;;;;;;5019016;28;20037;-79
2022/08/02 09:50:55;;;;;;;6.90;1.83;;;19.40;99.20;;;;;;5029519;28;20051;-77
2022/08/02 09:53:22;;;;;;;5.00;1.95;;;19.40;99.80;;;;;;5030974;28;20390;-77
2022/08/02 09:55:55;;;;;;;9.80;2.08;;;19.40;99.50;;;;;;5047008;28;20163;-77
2022/08/02 09:58:20;;;;;;;5.10;1.85;;;19.50;99.40;;;;;;5034670;28;20033;-78
2022/08/02 10:00:59;;;;;;;6.93;1.58;;;19.60;98.60;;;;;;5045899;28;20040;-77
2022/08/02 10:03:25;;;;;;;6.22;1.30;;;19.60;98.50;;;;;;5028716;28;20038;-77
2022/08/02 10:05:53;;;;;;;6.30;2.05;;;19.50;97.90;;;;;;5007816;28;20032;-77
2022/08/02 10:08:20;;;;;;;5.72;1.67;;;19.60;98.30;;;;;;5046899;28;20059;-76
2022/08/02 10:10:46;;;;;;;3.67;1.20;;;19.70;98.60;;;;;;5031907;28;20028;-77
2022/08/02 10:13:12;;;;;;;4.70;1.63;;;19.80;96.50;;;;;;5046413;28;20497;-77
2022/08/02 10:15:38;;;;;;;3.72;1.23;;;19.90;96.90;;;;;;5045345;28;20064;-78
2022/08/02 10:18:05;;;;;;;5.60;1.63;;;19.90;96.40;;;;;;5030994;28;20026;-78
2022/08/02 10:20:37;;;;;;;5.05;1.33;;;20.00;96.30;;;;;;5043503;28;20125;-77
2022/08/02 10:23:06;;;;;;;8.82;1.48;;;20.00;96.70;;;;;;5044564;28;20108;-77
2022/08/02 10:25:35;;;;;;;4.15;1.40;;;19.90;95.50;;;;;;5053408;28;20053;-78
2022/08/02 10:28:01;;;;;;;11.07;1.77;;;20.00;94.30;;;;;;5037162;28;20048;-80
2022/08/02 10:30:30;;;;;;;8.32;1.50;;;20.00;95.20;;;;;;5031559;28;20109;-79
2022/08/02 10:32:58;;;;;;;6.40;1.83;;;20.10;94.70;;;;;;5056304;28;20400;-78
2022/08/02 10:35:24;;;;;;;10.75;2.00;;;20.20;95.20;;;;;;5033909;28;20036;-79
2022/08/02 10:37:56;;;;;;;3.85;1.50;;;20.20;95.00;;;;;;5017962;28;20037;-79
2022/08/02 10:40:22;;;;;;;4.47;1.40;;;20.20;94.70;;;;;;5054241;28;20071;-78
2022/08/02 10:42:53;;;;;;;6.20;1.40;;;20.20;94.10;;;;;;5035912;28;20056;-82
2022/08/02 10:45:20;;;;;;;3.67;1.30;;;20.30;94.70;;;;;;5035902;28;20025;-79
2022/08/02 10:48:10;;;;;;;8.60;1.80;;;20.30;94.60;;;;;;5017027;28;20078;-77
2022/08/02 10:50:45;;;;;;;5.65;1.50;;;20.30;94.80;;;;;;5051828;28;20024;-73
2022/08/02 10:53:23;;;;;;;4.28;1.65;;;20.40;93.70;;;;;;5051633;28;20124;-75
2022/08/02 10:55:56;;;;;;;5.50;1.58;;;20.40;94.60;;;;;;5027961;28;20029;-76
2022/08/02 10:58:26;;;;;;;6.15;1.45;;;20.50;95.10;;;;;;5049948;28;20025;-75
2022/08/02 11:00:52;;;;;;;5.95;1.70;;;20.50;92.00;;;;;;5045207;28;20503;-77
2022/08/02 11:03:27;;;;;;;6.32;1.65;;;20.70;91.50;;;;;;5028562;28;20042;-79
2022/08/02 11:06:04;;;;;;;8.48;1.83;;;20.90;91.90;;;;;;5029610;28;20052;-76
2022/08/02 11:08:31;;;;;;;4.60;1.40;;;21.00;93.70;;;;;;5012562;28;21027;-77
2022/08/02 11:11:01;;;;;;;5.28;1.75;;;21.10;92.40;;;;;;5046094;28;20028;-75
2022/08/02 11:13:28;;;;;;;7.63;1.60;;;21.10;92.50;;;;;;5049195;28;20047;-76
2022/08/02 11:16:00;;;;;;;4.30;1.17;;;21.30;92.40;;;;;;5042848;28;20020;-77
2022/08/02 11:18:50;;;;;;;5.43;1.42;;;21.30;89.40;;;;;;5048988;28;20036;-75
2022/08/02 11:21:22;;;;;;;4.70;1.42;;;21.40;90.50;;;;;;5016017;28;20030;-76
2022/08/02 11:23:49;;;;;;;4.28;1.23;;;21.50;90.90;;;;;;5040656;28;20067;-76
2022/08/02 11:26:29;;;;;;;10.13;2.13;;;21.70;91.10;;;;;;5040640;28;20138;-76
2022/08/02 11:28:57;;;;;;;3.83;1.50;;;21.90;91.50;;;;;;5035642;28;20024;-74
2022/08/02 11:31:22;;;;;;;10.93;1.60;;;22.10;91.10;;;;;;5038401;28;20060;-75
2022/08/02 11:33:50;;;;;;;5.03;1.40;;;22.40;88.30;;;;;;5021427;28;20729;-77
2022/08/02 11:36:16;;;;;;;6.28;1.40;;;23.10;86.60;;;;;;5025950;28;20033;-77
2022/08/02 11:38:42;;;;;;;3.60;1.30;;;24.10;84.00;;;;;;5042575;28;20025;-74
2022/08/02 11:41:08;;;;;;;4.93;1.70;;;25.20;76.00;;;;;;5044189;28;20040;-76
2022/08/02 11:43:35;;;;;;;4.25;1.50;;;26.10;70.80;;;;;;5042661;28;20086;-76
2022/08/02 11:46:03;;;;;;;6.95;1.70;;;26.60;69.60;;;;;;5030290;28;20083;-79
2022/08/02 11:48:30;;;;;;;15.40;2.67;;;27.00;65.20;;;;;;5027167;28;20039;-76
2022/08/02 11:51:13;;;;;;;9.07;1.77;;;27.80;63.00;;;;;;5051080;28;20021;-77
2022/08/02 11:53:51;;;;;;;5.75;1.40;;;28.20;61.40;;;;;;5050365;28;20596;-77
2022/08/02 11:56:26;;;;;;;9.18;1.70;;;28.50;59.60;;;;;;5030521;28;20025;-77
2022/08/02 11:59:09;;;;;;;8.25;2.15;;;27.90;58.50;;;;;;5033992;28;20064;-77
2022/08/02 12:01:37;;;;;;;4.30;1.65;;;27.60;57.30;;;;;;5052497;28;20062;-78
2022/08/02 12:04:05;;;;;;;6.45;1.55;;;27.10;57.90;;;;;;5042883;28;20035;-77
2022/08/02 12:06:32;;;;;;;6.72;1.70;;;27.20;59.70;;;;;;5042260;28;20036;-77
2022/08/02 12:09:05;;;;;;;6.75;1.90;;;27.40;59.50;;;;;;5029252;28;20059;-77
2022/08/02 12:11:32;;;;;;;4.95;1.63;;;27.50;59.40;;;;;;5045731;28;20036;-78
2022/08/02 12:13:58;;;;;;;3.72;1.50;;;27.70;58.40;;;;;;5040367;28;20059;-77
2022/08/02 12:19:21;;;;;;;4.28;1.67;;;28.00;56.50;;;;;;5047659;28;20048;-80
2022/08/02 12:22:06;;;;;;;5.65;1.80;;;28.00;58.70;;;;;;5029739;28;20025;-79
2022/08/02 12:24:32;;;;;;;8.55;1.90;;;28.10;57.80;;;;;;5050003;28;20036;-78
2022/08/02 12:26:58;;;;;;;8.27;2.33;;;28.30;56.20;;;;;;5030760;28;20405;-77
2022/08/02 12:29:35;;;;;;;6.03;1.60;;;28.60;57.00;;;;;;5047836;28;20052;-78
2022/08/02 12:32:01;;;;;;;5.32;1.33;;;28.80;56.10;;;;;;5033392;28;20032;-78
2022/08/02 12:34:29;;;;;;;6.53;1.75;;;29.00;56.60;;;;;;5033538;28;20083;-79
2022/08/02 12:37:03;;;;;;;5.88;1.60;;;29.20;57.40;;;;;;5046454;28;20021;-79
2022/08/02 12:39:39;;;;;;;4.50;1.40;;;29.50;56.50;;;;;;5057225;28;20036;-78
2022/08/02 12:42:09;;;;;;;4.40;1.58;;;29.90;54.30;;;;;;5060722;28;20025;-80
2022/08/02 12:44:58;;;;;;;3.03;1.33;;;30.10;51.30;;;;;;5047469;28;20029;-80
2022/08/02 12:47:25;;;;;;;4.70;1.43;;;29.80;54.70;;;;;;5047144;28;20256;-81
2022/08/02 12:50:23;;;;;;;5.07;1.38;;;29.90;54.20;;;;;;5039394;28;20032;-81
2022/08/02 12:52:49;;;;;;;2.38;1.40;;;30.90;52.50;;;;;;5053333;28;20025;-81
2022/08/02 12:55:18;;;;;;;4.70;1.40;;;31.30;48.20;;;;;;5051330;28;20036;-80
2022/08/02 12:57:55;;;;;;;3.38;1.30;;;31.00;49.80;;;;;;5052977;28;20029;-80
2022/08/02 13:00:26;;;;;;;3.67;1.60;;;30.70;50.70;;;;;;5036048;28;20372;-81